Latest METARs, TAFs and NOTAMs for TBPB


---------------------------------------------------------------------------
	(OBSERVATIONS)
TBPB 231000Z 09017KT 9999 SCT020 27/24 Q1014 NOSIG=
TBPB 230900Z 09015KT 9999 -SHRA SCT020 27/24 Q1014 NOSIG=
TBPB 230800Z 09015KT 9999 SCT020 27/24 Q1014 NOSIG=
---------------------------------------------------------------------------
	(TERMINAL AREA FORECAST)
TBPB 231000Z NIL=
---------------------------------------------------------------------------
	(NOTAMS)


TBPB A0700/17 ILS LLZ "IBGI" 110.1MHZ RWY09 SUBJ INTRP DUE GRASS
    CUTTING. DLY BTN 1200-1600, 23 MAY 12:00 2017 UNTIL 24 MAY
    16:00 2017. CREATED: 21 MAY 17:44 2017

TBPB A0701/17 DVOR/DME "BGI" 112.7MHZ/CH74X SUBJ INTRP DUE GRASS
    CUTTING. 1200-1600, 25 MAY 12:00 2017 UNTIL 26 MAY 16:00
    2017. CREATED: 21 MAY 18:13 2017

---------------------------------------------------------------------------